sensor_id;sensor_type;location;lat;lon;timestamp;P1;durP1;ratioP1;P2;durP2;ratioP2
40629;SDS011;26329;40.388;-3.710;2024-01-10T00:00:06;24.60;;;16.10;;
40629;SDS011;26329;40.388;-3.710;2024-01-10T00:10:07;25.13;;;15.07;;
40629;SDS011;26329;40.388;-3.710;2024-01-10T00:20:09;22.83;;;15.43;;
40629;SDS011;26329;40.388;-3.710;2024-01-10T00:30:10;25.35;;;16.67;;
40629;SDS011;26329;40.388;-3.710;2024-01-10T00:40:11;20.45;;;15.00;;
40629;SDS011;26329;40.388;-3.710;2024-01-10T00:50:12;24.23;;;15.60;;
40629;SDS011;26329;40.388;-3.710;2024-01-10T01:00:14;29.58;;;16.55;;
40629;SDS011;26329;40.388;-3.710;2024-01-10T01:10:15;27.42;;;16.98;;
40629;SDS011;26329;40.388;-3.710;2024-01-10T01:20:16;30.35;;;17.65;;
40629;SDS011;26329;40.388;-3.710;2024-01-10T01:30:17;22.38;;;16.30;;
40629;SDS011;26329;40.388;-3.710;2024-01-10T01:40:21;25.52;;;16.52;;
40629;SDS011;26329;40.388;-3.710;2024-01-10T01:50:22;29.98;;;16.48;;
40629;SDS011;26329;40.388;-3.710;2024-01-10T02:00:24;27.65;;;17.38;;
40629;SDS011;26329;40.388;-3.710;2024-01-10T02:10:25;30.60;;;18.63;;
40629;SDS011;26329;40.388;-3.710;2024-01-10T02:20:26;26.88;;;18.23;;
40629;SDS011;26329;40.388;-3.710;2024-01-10T02:30:27;28.27;;;17.33;;
40629;SDS011;26329;40.388;-3.710;2024-01-10T02:40:28;24.27;;;16.25;;
40629;SDS011;26329;40.388;-3.710;2024-01-10T02:50:30;27.48;;;16.38;;
40629;SDS011;26329;40.388;-3.710;2024-01-10T03:00:31;25.88;;;17.10;;
40629;SDS011;26329;40.388;-3.710;2024-01-10T03:10:32;30.65;;;16.70;;
40629;SDS011;26329;40.388;-3.710;2024-01-10T03:20:33;24.83;;;16.48;;
40629;SDS011;26329;40.388;-3.710;2024-01-10T03:30:34;25.05;;;16.85;;
40629;SDS011;26329;40.388;-3.710;2024-01-10T03:40:36;24.40;;;17.13;;
40629;SDS011;26329;40.388;-3.710;2024-01-10T03:50:37;25.80;;;16.73;;
40629;SDS011;26329;40.388;-3.710;2024-01-10T04:00:38;29.25;;;19.02;;
40629;SDS011;26329;40.388;-3.710;2024-01-10T04:10:39;30.80;;;18.90;;
40629;SDS011;26329;40.388;-3.710;2024-01-10T04:20:41;26.17;;;17.92;;
40629;SDS011;26329;40.388;-3.710;2024-01-10T04:30:42;28.08;;;19.50;;
40629;SDS011;26329;40.388;-3.710;2024-01-10T04:40:43;37.78;;;21.38;;
40629;SDS011;26329;40.388;-3.710;2024-01-10T04:50:44;33.28;;;20.75;;
40629;SDS011;26329;40.388;-3.710;2024-01-10T05:00:46;29.58;;;19.08;;
40629;SDS011;26329;40.388;-3.710;2024-01-10T05:10:47;27.50;;;18.23;;
40629;SDS011;26329;40.388;-3.710;2024-01-10T05:20:48;29.55;;;19.60;;
40629;SDS011;26329;40.388;-3.710;2024-01-10T05:30:50;33.75;;;20.65;;
40629;SDS011;26329;40.388;-3.710;2024-01-10T05:40:51;36.42;;;22.92;;
40629;SDS011;26329;40.388;-3.710;2024-01-10T05:50:52;38.17;;;25.48;;
40629;SDS011;26329;40.388;-3.710;2024-01-10T06:00:53;42.08;;;26.13;;
40629;SDS011;26329;40.388;-3.710;2024-01-10T06:10:55;45.38;;;27.83;;
40629;SDS011;26329;40.388;-3.710;2024-01-10T06:20:56;45.40;;;29.75;;
40629;SDS011;26329;40.388;-3.710;2024-01-10T06:30:57;47.38;;;31.40;;
40629;SDS011;26329;40.388;-3.710;2024-01-10T06:40:59;44.92;;;30.52;;
40629;SDS011;26329;40.388;-3.710;2024-01-10T06:51:00;42.80;;;26.98;;
40629;SDS011;26329;40.388;-3.710;2024-01-10T07:01:01;47.17;;;26.67;;
40629;SDS011;26329;40.388;-3.710;2024-01-10T07:11:05;39.63;;;22.63;;
40629;SDS011;26329;40.388;-3.710;2024-01-10T07:21:06;41.70;;;25.00;;
40629;SDS011;26329;40.388;-3.710;2024-01-10T07:31:11;32.20;;;22.20;;
40629;SDS011;26329;40.388;-3.710;2024-01-10T07:41:12;36.92;;;23.95;;
40629;SDS011;26329;40.388;-3.710;2024-01-10T07:51:13;37.92;;;25.23;;
40629;SDS011;26329;40.388;-3.710;2024-01-10T08:01:14;36.80;;;21.80;;
40629;SDS011;26329;40.388;-3.710;2024-01-10T08:11:16;39.42;;;25.17;;
40629;SDS011;26329;40.388;-3.710;2024-01-10T08:21:17;37.85;;;21.63;;
40629;SDS011;26329;40.388;-3.710;2024-01-10T08:31:19;32.17;;;18.15;;
40629;SDS011;26329;40.388;-3.710;2024-01-10T08:41:20;29.67;;;18.15;;
40629;SDS011;26329;40.388;-3.710;2024-01-10T08:51:22;24.85;;;15.38;;
40629;SDS011;26329;40.388;-3.710;2024-01-10T09:01:23;23.30;;;15.30;;
40629;SDS011;26329;40.388;-3.710;2024-01-10T09:11:24;28.85;;;17.80;;
40629;SDS011;26329;40.388;-3.710;2024-01-10T09:21:25;25.13;;;16.02;;
40629;SDS011;26329;40.388;-3.710;2024-01-10T09:31:27;25.92;;;15.65;;
40629;SDS011;26329;40.388;-3.710;2024-01-10T09:41:28;24.80;;;12.82;;
40629;SDS011;26329;40.388;-3.710;2024-01-10T09:51:30;23.45;;;12.80;;
40629;SDS011;26329;40.388;-3.710;2024-01-10T10:01:31;21.13;;;12.85;;
40629;SDS011;26329;40.388;-3.710;2024-01-10T10:11:33;21.83;;;11.80;;
40629;SDS011;26329;40.388;-3.710;2024-01-10T10:21:34;16.25;;;9.82;;
40629;SDS011;26329;40.388;-3.710;2024-01-10T10:31:35;15.25;;;10.45;;
40629;SDS011;26329;40.388;-3.710;2024-01-10T10:41:36;10.85;;;6.80;;
40629;SDS011;26329;40.388;-3.710;2024-01-10T10:51:38;8.88;;;6.43;;
40629;SDS011;26329;40.388;-3.710;2024-01-10T11:01:40;8.68;;;5.35;;
40629;SDS011;26329;40.388;-3.710;2024-01-10T11:31:50;7.63;;;4.57;;
40629;SDS011;26329;40.388;-3.710;2024-01-10T11:41:52;7.45;;;4.75;;
40629;SDS011;26329;40.388;-3.710;2024-01-10T11:51:57;6.78;;;4.30;;
40629;SDS011;26329;40.388;-3.710;2024-01-10T12:01:58;6.15;;;3.55;;
40629;SDS011;26329;40.388;-3.710;2024-01-10T12:11:59;6.88;;;2.67;;
40629;SDS011;26329;40.388;-3.710;2024-01-10T12:22:01;2.58;;;1.88;;
40629;SDS011;26329;40.388;-3.710;2024-01-10T12:32:02;3.20;;;2.22;;
40629;SDS011;26329;40.388;-3.710;2024-01-10T12:42:03;5.15;;;2.63;;
40629;SDS011;26329;40.388;-3.710;2024-01-10T12:52:05;4.43;;;2.92;;
40629;SDS011;26329;40.388;-3.710;2024-01-10T13:02:07;6.07;;;3.80;;
40629;SDS011;26329;40.388;-3.710;2024-01-10T13:12:09;3.40;;;2.45;;
40629;SDS011;26329;40.388;-3.710;2024-01-10T13:22:10;4.93;;;2.70;;
40629;SDS011;26329;40.388;-3.710;2024-01-10T13:32:14;4.77;;;3.20;;
40629;SDS011;26329;40.388;-3.710;2024-01-10T13:42:15;8.38;;;2.55;;
40629;SDS011;26329;40.388;-3.710;2024-01-10T13:52:17;3.97;;;2.75;;
40629;SDS011;26329;40.388;-3.710;2024-01-10T14:02:18;3.20;;;2.67;;
40629;SDS011;26329;40.388;-3.710;2024-01-10T14:12:20;2.72;;;2.17;;
40629;SDS011;26329;40.388;-3.710;2024-01-10T14:22:22;9.00;;;2.63;;
40629;SDS011;26329;40.388;-3.710;2024-01-10T14:32:25;4.03;;;2.42;;
40629;SDS011;26329;40.388;-3.710;2024-01-10T14:42:27;4.38;;;2.60;;
40629;SDS011;26329;40.388;-3.710;2024-01-10T14:52:29;4.95;;;2.22;;
40629;SDS011;26329;40.388;-3.710;2024-01-10T15:02:30;3.30;;;2.30;;
40629;SDS011;26329;40.388;-3.710;2024-01-10T15:12:31;27.92;;;4.90;;
40629;SDS011;26329;40.388;-3.710;2024-01-10T15:22:33;7.72;;;3.20;;
40629;SDS011;26329;40.388;-3.710;2024-01-10T15:32:37;9.77;;;3.38;;
40629;SDS011;26329;40.388;-3.710;2024-01-10T15:42:38;8.35;;;2.20;;
40629;SDS011;26329;40.388;-3.710;2024-01-10T15:52:40;3.92;;;2.03;;
40629;SDS011;26329;40.388;-3.710;2024-01-10T16:02:41;4.68;;;1.92;;
40629;SDS011;26329;40.388;-3.710;2024-01-10T16:12:42;2.65;;;1.30;;
40629;SDS011;26329;40.388;-3.710;2024-01-10T16:22:43;2.53;;;1.80;;
40629;SDS011;26329;40.388;-3.710;2024-01-10T16:32:45;2.63;;;1.92;;
40629;SDS011;26329;40.388;-3.710;2024-01-10T16:42:46;3.22;;;1.65;;
40629;SDS011;26329;40.388;-3.710;2024-01-10T16:52:47;3.38;;;2.40;;
40629;SDS011;26329;40.388;-3.710;2024-01-10T17:02:48;2.30;;;2.10;;
40629;SDS011;26329;40.388;-3.710;2024-01-10T17:12:50;2.13;;;1.90;;
40629;SDS011;26329;40.388;-3.710;2024-01-10T17:22:52;2.85;;;1.90;;
40629;SDS011;26329;40.388;-3.710;2024-01-10T17:32:54;3.72;;;2.53;;
40629;SDS011;26329;40.388;-3.710;2024-01-10T17:42:56;3.40;;;2.67;;
40629;SDS011;26329;40.388;-3.710;2024-01-10T17:52:59;4.20;;;3.70;;
40629;SDS011;26329;40.388;-3.710;2024-01-10T18:03:03;3.80;;;3.33;;
40629;SDS011;26329;40.388;-3.710;2024-01-10T18:13:04;3.78;;;3.47;;
40629;SDS011;26329;40.388;-3.710;2024-01-10T18:23:05;6.65;;;3.70;;
40629;SDS011;26329;40.388;-3.710;2024-01-10T18:33:07;5.53;;;5.13;;
40629;SDS011;26329;40.388;-3.710;2024-01-10T18:43:09;4.75;;;4.30;;
40629;SDS011;26329;40.388;-3.710;2024-01-10T18:53:10;3.90;;;3.60;;
40629;SDS011;26329;40.388;-3.710;2024-01-10T19:03:12;4.22;;;3.40;;
40629;SDS011;26329;40.388;-3.710;2024-01-10T19:13:13;3.67;;;3.38;;
40629;SDS011;26329;40.388;-3.710;2024-01-10T19:23:14;3.40;;;3.15;;
40629;SDS011;26329;40.388;-3.710;2024-01-10T19:33:17;6.55;;;4.75;;
40629;SDS011;26329;40.388;-3.710;2024-01-10T19:43:22;5.00;;;3.88;;
40629;SDS011;26329;40.388;-3.710;2024-01-10T19:53:32;4.15;;;3.35;;
40629;SDS011;26329;40.388;-3.710;2024-01-10T20:03:33;4.60;;;4.20;;
40629;SDS011;26329;40.388;-3.710;2024-01-10T20:13:35;9.95;;;6.18;;
40629;SDS011;26329;40.388;-3.710;2024-01-10T20:23:36;5.30;;;4.80;;
40629;SDS011;26329;40.388;-3.710;2024-01-10T20:33:37;3.92;;;3.63;;
40629;SDS011;26329;40.388;-3.710;2024-01-10T20:43:38;8.68;;;6.25;;
40629;SDS011;26329;40.388;-3.710;2024-01-10T20:53:39;8.80;;;5.90;;
40629;SDS011;26329;40.388;-3.710;2024-01-10T21:03:42;4.28;;;3.75;;
40629;SDS011;26329;40.388;-3.710;2024-01-10T21:13:44;4.78;;;4.15;;
40629;SDS011;26329;40.388;-3.710;2024-01-10T21:23:45;7.55;;;5.43;;
40629;SDS011;26329;40.388;-3.710;2024-01-10T21:33:46;9.27;;;7.95;;
40629;SDS011;26329;40.388;-3.710;2024-01-10T21:43:48;7.45;;;5.13;;
40629;SDS011;26329;40.388;-3.710;2024-01-10T21:53:50;4.80;;;4.28;;
40629;SDS011;26329;40.388;-3.710;2024-01-10T22:03:51;8.30;;;6.43;;
40629;SDS011;26329;40.388;-3.710;2024-01-10T22:13:53;7.43;;;5.20;;
40629;SDS011;26329;40.388;-3.710;2024-01-10T22:23:54;6.90;;;4.50;;
40629;SDS011;26329;40.388;-3.710;2024-01-10T22:33:55;11.93;;;7.20;;
40629;SDS011;26329;40.388;-3.710;2024-01-10T22:43:57;10.35;;;6.70;;
40629;SDS011;26329;40.388;-3.710;2024-01-10T22:53:58;9.15;;;5.28;;
40629;SDS011;26329;40.388;-3.710;2024-01-10T23:03:59;19.55;;;10.45;;
40629;SDS011;26329;40.388;-3.710;2024-01-10T23:14:01;6.70;;;4.40;;
40629;SDS011;26329;40.388;-3.710;2024-01-10T23:24:02;24.55;;;9.13;;
40629;SDS011;26329;40.388;-3.710;2024-01-10T23:34:04;18.77;;;8.38;;
40629;SDS011;26329;40.388;-3.710;2024-01-10T23:44:06;14.65;;;6.28;;
40629;SDS011;26329;40.388;-3.710;2024-01-10T23:54:07;4.07;;;2.67;;
